createdAt,value
2018-11-03T00:03:22.534Z,10.40
2018-11-03T00:05:59.113Z,9.03
2018-11-03T00:08:36.884Z,7.43
2018-11-03T00:11:10.048Z,7.83
2018-11-03T00:13:58.691Z,10.40
2018-11-03T00:16:33.818Z,8.33
2018-11-03T00:22:37.449Z,7.57
2018-11-03T00:25:23.614Z,6.77
2018-11-03T00:27:59.925Z,8.37
2018-11-03T00:30:35.805Z,8.03
2018-11-03T00:33:22.292Z,6.50
2018-11-03T00:36:06.944Z,10.50
2018-11-03T00:38:51.161Z,7.00
2018-11-03T00:41:30.364Z,7.53
2018-11-03T00:44:01.691Z,6.20
2018-11-03T00:46:37.699Z,7.37
2018-11-03T00:49:10.251Z,12.73
2018-11-03T00:51:42.345Z,10.20
2018-11-03T00:54:31.529Z,9.73
2018-11-03T00:57:02.027Z,7.93
2018-11-03T00:59:33.770Z,8.23
2018-11-03T01:02:05.816Z,9.70
2018-11-03T01:04:39.521Z,10.70
2018-11-03T01:07:11.935Z,8.13
2018-11-03T01:09:59.650Z,12.13
2018-11-03T01:13:00.719Z,10.03
2018-11-03T01:15:48.516Z,10.73
2018-11-03T01:18:28.294Z,9.60
2018-11-03T01:21:03.145Z,10.37
2018-11-03T01:26:50.413Z,10.80
2018-11-03T01:29:32.788Z,11.03
2018-11-03T01:32:08.803Z,9.27
2018-11-03T01:37:59.475Z,11.13
2018-11-03T01:40:29.110Z,10.07
2018-11-03T01:43:00.034Z,12.00
2018-11-03T01:45:29.365Z,9.60
2018-11-03T01:47:58.622Z,9.43
2018-11-03T01:50:31.739Z,11.93
2018-11-03T01:53:01.068Z,11.33
2018-11-03T01:55:31.132Z,10.70
2018-11-03T01:58:00.548Z,14.33
2018-11-03T02:00:30.038Z,10.30
2018-11-03T02:03:00.284Z,11.00
2018-11-03T02:05:29.694Z,13.20
2018-11-03T02:08:00.935Z,11.60
2018-11-03T02:10:30.082Z,12.90
2018-11-03T02:13:00.270Z,16.83
2018-11-03T02:15:29.669Z,11.13
2018-11-03T02:17:58.993Z,13.07
2018-11-03T02:20:28.994Z,12.27
2018-11-03T02:22:59.219Z,12.43
2018-11-03T02:25:29.455Z,14.00
2018-11-03T02:27:58.867Z,12.37
2018-11-03T02:30:28.455Z,13.00
2018-11-03T02:32:59.834Z,13.47
2018-11-03T02:35:29.086Z,12.97
2018-11-03T02:37:58.999Z,17.77
2018-11-03T02:40:28.996Z,18.17
2018-11-03T02:42:58.923Z,14.60
2018-11-03T02:45:28.806Z,15.80
2018-11-03T02:47:58.393Z,17.33
2018-11-03T02:50:27.886Z,14.90
2018-11-03T02:53:01.399Z,13.77
2018-11-03T02:55:30.629Z,15.17
2018-11-03T02:57:59.899Z,13.93
2018-11-03T03:00:30.703Z,13.33
2018-11-03T03:03:00.943Z,16.80
2018-11-03T03:05:30.224Z,15.57
2018-11-03T03:07:59.603Z,15.27
2018-11-03T03:10:29.803Z,14.50
2018-11-03T03:12:59.309Z,16.90
2018-11-03T03:15:29.419Z,16.33
2018-11-03T03:17:58.834Z,17.43
2018-11-03T03:20:28.489Z,18.00
2018-11-03T03:22:59.376Z,16.70
2018-11-03T03:25:29.452Z,16.77
2018-11-03T03:27:59.845Z,16.47
2018-11-03T03:30:29.024Z,13.77
2018-11-03T03:32:58.684Z,14.53
2018-11-03T03:35:28.879Z,14.33
2018-11-03T03:37:59.152Z,16.27
2018-11-03T03:40:29.100Z,16.80
2018-11-03T03:42:58.861Z,15.33
2018-11-03T03:45:28.411Z,15.43
2018-11-03T03:47:57.842Z,15.23
2018-11-03T03:50:28.453Z,18.07
2018-11-03T03:52:58.125Z,16.00
2018-11-03T03:55:27.369Z,21.90
2018-11-03T03:57:56.621Z,17.20
2018-11-03T04:00:28.183Z,20.63
2018-11-03T04:03:01.305Z,16.10
2018-11-03T04:05:30.372Z,16.80
2018-11-03T04:08:00.220Z,18.50
2018-11-03T04:10:29.543Z,17.30
2018-11-03T04:12:58.842Z,17.40
2018-11-03T04:15:28.184Z,16.53
2018-11-03T04:17:57.521Z,15.57
2018-11-03T04:20:28.029Z,16.10
2018-11-03T04:22:58.644Z,15.90
2018-11-03T04:25:28.104Z,16.40
2018-11-03T04:27:57.883Z,16.67
2018-11-03T04:30:28.645Z,17.23
2018-11-03T04:33:00.241Z,16.37
2018-11-03T04:35:29.568Z,18.93
2018-11-03T04:37:58.858Z,17.77
2018-11-03T04:40:28.334Z,18.63
2018-11-03T04:42:59.869Z,17.63
2018-11-03T04:45:30.086Z,18.57
2018-11-03T04:48:00.020Z,17.23
2018-11-03T04:50:29.356Z,17.43
2018-11-03T04:52:59.416Z,16.57
2018-11-03T04:55:29.964Z,17.83
2018-11-03T04:57:59.307Z,17.60
2018-11-03T05:00:31.753Z,17.60
2018-11-03T05:03:01.500Z,17.07
2018-11-03T05:05:30.845Z,17.83
2018-11-03T05:08:00.010Z,16.83
2018-11-03T05:10:29.428Z,18.37
2018-11-03T05:12:59.530Z,17.33
2018-11-03T05:15:29.000Z,21.27
2018-11-03T05:17:58.270Z,23.30
2018-11-03T05:20:28.760Z,20.03
2018-11-03T05:22:59.064Z,18.17
2018-11-03T05:25:28.906Z,18.33
2018-11-03T05:27:58.301Z,20.03
2018-11-03T05:30:29.834Z,20.73
2018-11-03T05:33:00.508Z,18.30
2018-11-03T05:35:29.816Z,21.97
2018-11-03T05:38:00.084Z,24.57
2018-11-03T05:40:29.579Z,17.50
2018-11-03T05:43:00.779Z,18.50
2018-11-03T05:45:30.040Z,20.70
2018-11-03T05:47:59.994Z,19.10
2018-11-03T05:50:32.871Z,18.83
2018-11-03T05:53:02.596Z,19.40
2018-11-03T05:55:33.262Z,19.70
2018-11-03T05:58:02.785Z,19.83
2018-11-03T06:00:32.349Z,18.27
2018-11-03T06:03:03.130Z,19.20
2018-11-03T06:05:32.474Z,19.80
2018-11-03T06:08:02.222Z,21.00
2018-11-03T06:10:32.193Z,20.17
2018-11-03T06:13:02.900Z,19.50
2018-11-03T06:15:32.460Z,23.57
2018-11-03T06:18:02.502Z,20.00
2018-11-03T06:20:31.762Z,20.03
2018-11-03T06:23:01.209Z,21.40
2018-11-03T06:25:30.273Z,22.70
2018-11-03T06:27:59.859Z,23.10
2018-11-03T06:30:29.278Z,19.07
2018-11-03T06:32:58.796Z,19.33
2018-11-03T06:35:29.612Z,17.20
2018-11-03T06:38:00.394Z,20.50
2018-11-03T06:40:30.422Z,18.33
2018-11-03T06:46:01.251Z,19.60
2018-11-03T06:48:33.610Z,18.83
2018-11-03T06:51:03.351Z,23.37
2018-11-03T06:53:33.147Z,19.83
2018-11-03T06:56:02.431Z,19.40
2018-11-03T06:58:32.904Z,20.40
2018-11-03T07:01:03.314Z,18.57
2018-11-03T07:03:33.048Z,19.10
2018-11-03T07:09:02.495Z,17.73
2018-11-03T07:11:44.289Z,18.43
2018-11-03T07:14:21.636Z,18.93
2018-11-03T07:17:01.794Z,20.70
2018-11-03T07:19:32.383Z,18.77
2018-11-03T07:22:02.863Z,20.13
2018-11-03T07:24:46.195Z,19.90
2018-11-03T07:31:04.016Z,19.57
2018-11-03T07:38:37.886Z,19.13
2018-11-03T07:49:33.716Z,18.83
2018-11-03T08:06:32.091Z,23.53
2018-11-03T08:09:01.779Z,20.80
2018-11-03T08:11:33.374Z,20.97
2018-11-03T08:14:02.958Z,18.17
2018-11-03T08:16:32.609Z,18.63
2018-11-03T08:19:03.964Z,19.93
2018-11-03T08:24:29.260Z,20.33
2018-11-03T08:27:00.298Z,19.20
2018-11-03T08:29:30.459Z,20.40
2018-11-03T08:32:03.227Z,18.53
2018-11-03T08:37:39.533Z,17.53
2018-11-03T08:40:14.917Z,19.30
2018-11-03T08:42:56.047Z,16.83
2018-11-03T08:45:26.427Z,16.30
2018-11-03T08:48:16.160Z,18.13
2018-11-03T08:50:47.465Z,16.40
2018-11-03T08:53:16.359Z,16.07
2018-11-03T08:55:54.221Z,16.73
2018-11-03T08:58:26.973Z,14.93
2018-11-03T09:00:55.719Z,15.43
2018-11-03T09:03:59.023Z,15.87
2018-11-03T09:06:33.744Z,13.83
2018-11-03T09:09:07.979Z,12.30
2018-11-03T09:11:57.151Z,14.47
2018-11-03T09:14:35.045Z,14.10
2018-11-03T09:17:05.824Z,15.93
2018-11-03T09:23:39.411Z,16.73
2018-11-03T09:41:50.648Z,18.07
2018-11-03T09:44:38.137Z,15.83
2018-11-03T09:47:16.692Z,16.87
2018-11-03T09:52:42.848Z,15.37
2018-11-03T09:55:18.062Z,15.33
2018-11-03T09:57:59.717Z,15.80
2018-11-03T10:00:30.043Z,15.63
2018-11-03T10:03:00.600Z,14.93
2018-11-03T10:05:30.154Z,14.67
2018-11-03T10:08:28.514Z,16.63
2018-11-03T10:11:06.034Z,15.23
2018-11-03T10:13:38.391Z,15.50
2018-11-03T10:16:29.829Z,14.10
2018-11-03T10:22:04.172Z,14.40
2018-11-03T10:26:54.101Z,14.40
2018-11-03T10:29:35.740Z,14.20
2018-11-03T10:32:06.368Z,15.80
2018-11-03T10:34:36.034Z,14.23
2018-11-03T10:37:08.589Z,14.07
2018-11-03T10:39:52.760Z,14.33
2018-11-03T10:42:24.743Z,14.57
2018-11-03T10:45:00.313Z,13.37
2018-11-03T10:47:29.994Z,14.43
2018-11-03T10:50:05.160Z,15.13
2018-11-03T10:52:34.699Z,14.80
2018-11-03T10:55:09.674Z,14.70
2018-11-03T10:57:43.429Z,13.33
2018-11-03T11:00:21.544Z,13.00
2018-11-03T11:02:56.471Z,13.20
2018-11-03T11:05:35.535Z,13.00
2018-11-03T11:08:16.224Z,12.73
2018-11-03T11:10:50.877Z,13.20
2018-11-03T11:13:26.457Z,11.03
2018-11-03T11:15:57.690Z,12.10
2018-11-03T11:18:31.726Z,12.07
2018-11-03T11:21:03.215Z,11.80
2018-11-03T11:23:33.842Z,11.10
2018-11-03T11:26:04.052Z,12.50
2018-11-03T11:28:34.619Z,11.30
2018-11-03T11:31:04.857Z,10.97
2018-11-03T11:33:34.941Z,10.80
2018-11-03T11:36:04.812Z,12.23
2018-11-03T11:38:34.673Z,10.33
2018-11-03T11:41:06.032Z,12.07
2018-11-03T11:43:35.543Z,11.67
2018-11-03T11:46:14.163Z,10.47
2018-11-03T11:48:53.782Z,11.87
2018-11-03T11:51:28.936Z,10.90
2018-11-03T11:53:58.434Z,10.73
2018-11-03T11:56:28.031Z,9.63
2018-11-03T11:58:57.447Z,9.90
2018-11-03T12:01:26.961Z,10.03
2018-11-03T12:03:56.729Z,9.63
2018-11-03T12:06:26.435Z,9.13
2018-11-03T12:08:57.524Z,9.40
2018-11-03T12:11:30.215Z,8.00
2018-11-03T12:14:00.647Z,7.87
2018-11-03T12:16:32.992Z,8.63
2018-11-03T12:19:05.403Z,8.77
2018-11-03T12:21:37.479Z,7.37
2018-11-03T12:24:07.107Z,7.03
2018-11-03T12:26:36.743Z,9.33
2018-11-03T12:29:08.918Z,5.30
2018-11-03T12:31:38.403Z,7.33
2018-11-03T12:34:07.437Z,6.33
2018-11-03T12:36:39.512Z,5.63
2018-11-03T12:39:09.436Z,3.40
2018-11-03T12:41:39.107Z,5.57
2018-11-03T12:44:08.480Z,6.17
2018-11-03T12:46:38.132Z,6.53
2018-11-03T12:49:16.025Z,8.83
2018-11-03T12:51:49.524Z,3.60
2018-11-03T12:54:19.192Z,3.30
2018-11-03T12:56:49.182Z,3.20
2018-11-03T12:59:21.003Z,4.73
2018-11-03T13:01:50.875Z,3.33
2018-11-03T13:04:20.082Z,5.53
2018-11-03T13:06:52.714Z,5.73
2018-11-03T13:09:24.757Z,3.53
2018-11-03T13:11:54.081Z,2.90
2018-11-03T13:14:43.799Z,4.10
2018-11-03T13:17:14.496Z,3.77
2018-11-03T13:19:44.864Z,4.57
2018-11-03T13:22:14.321Z,4.90
2018-11-03T13:24:44.681Z,5.93
2018-11-03T13:27:15.530Z,4.57
2018-11-03T13:29:45.208Z,4.33
2018-11-03T13:35:33.109Z,5.73
2018-11-03T13:38:03.614Z,4.77
2018-11-03T13:40:33.343Z,5.60
2018-11-03T13:43:02.949Z,4.37
2018-11-03T13:45:32.273Z,3.83
2018-11-03T13:48:02.047Z,3.67
2018-11-03T13:50:37.924Z,4.47
2018-11-03T13:53:10.914Z,4.27
2018-11-03T13:55:40.289Z,5.57
2018-11-03T13:58:09.728Z,3.93
2018-11-03T14:00:39.249Z,6.27
2018-11-03T14:03:09.197Z,4.13
2018-11-03T14:05:41.141Z,3.50
2018-11-03T14:08:10.458Z,5.03
2018-11-03T14:10:40.243Z,3.80
2018-11-03T14:13:09.834Z,4.57
2018-11-03T14:15:39.070Z,5.37
2018-11-03T14:18:08.494Z,3.87
2018-11-03T14:20:37.872Z,4.60
2018-11-03T14:23:08.980Z,4.43
2018-11-03T14:25:39.712Z,2.97
2018-11-03T14:28:10.736Z,2.87
2018-11-03T14:30:41.648Z,3.70
2018-11-03T14:33:16.193Z,4.77
2018-11-03T14:35:46.985Z,5.20
2018-11-03T14:38:18.665Z,5.10
2018-11-03T14:40:48.253Z,7.00
2018-11-03T14:43:26.184Z,4.03
2018-11-03T14:45:55.680Z,4.40
2018-11-03T14:48:27.852Z,3.00
2018-11-03T14:50:59.268Z,7.43
2018-11-03T14:53:30.437Z,3.90
2018-11-03T14:58:38.091Z,3.03
2018-11-03T15:01:07.708Z,3.10
2018-11-03T15:03:36.972Z,3.10
2018-11-03T15:06:11.459Z,3.43
2018-11-03T15:08:46.825Z,2.30
2018-11-03T15:11:22.010Z,4.40
2018-11-03T15:13:52.341Z,3.17
2018-11-03T15:16:24.636Z,3.40
2018-11-03T15:18:54.235Z,3.27
2018-11-03T15:21:24.153Z,3.40
2018-11-03T15:23:54.597Z,2.30
2018-11-03T15:26:23.989Z,2.90
2018-11-03T15:28:53.872Z,3.47
2018-11-03T15:31:24.225Z,4.33
2018-11-03T15:33:56.887Z,2.70
2018-11-03T15:36:31.599Z,3.93
2018-11-03T15:39:03.978Z,3.30
2018-11-03T15:41:34.618Z,3.93
2018-11-03T15:44:11.499Z,4.90
2018-11-03T15:46:45.419Z,5.20
2018-11-03T15:49:15.243Z,5.13
2018-11-03T15:51:46.347Z,4.80
2018-11-03T15:54:15.717Z,3.63
2018-11-03T15:56:45.064Z,4.30
2018-11-03T15:59:16.210Z,3.80
2018-11-03T16:01:46.137Z,6.10
2018-11-03T16:04:17.782Z,8.50
2018-11-03T16:06:48.570Z,5.50
2018-11-03T16:09:21.012Z,3.60
2018-11-03T16:11:50.291Z,3.60
2018-11-03T16:14:20.172Z,3.20
2018-11-03T16:16:50.807Z,5.20
2018-11-03T16:19:22.034Z,3.40
2018-11-03T16:21:53.032Z,3.23
2018-11-03T16:24:24.137Z,3.27
2018-11-03T16:29:37.106Z,4.70
2018-11-03T16:32:09.717Z,4.70
2018-11-03T16:34:39.232Z,2.80
2018-11-03T16:40:08.221Z,8.10
2018-11-03T16:42:56.374Z,2.60
2018-11-03T16:45:28.238Z,4.70
2018-11-03T16:48:00.194Z,3.80
2018-11-03T16:50:30.862Z,3.47
2018-11-03T16:59:20.255Z,4.30
2018-11-03T17:03:23.850Z,3.83
2018-11-03T17:08:47.371Z,4.40
2018-11-03T17:11:18.238Z,3.83
2018-11-03T17:13:51.157Z,4.90
2018-11-03T17:16:27.459Z,3.53
2018-11-03T17:18:59.390Z,4.43
2018-11-03T17:21:30.492Z,7.10
2018-11-03T17:24:00.801Z,5.50
2018-11-03T17:26:31.207Z,5.57
2018-11-03T17:29:01.923Z,5.50
2018-11-03T17:31:32.247Z,11.40
2018-11-03T17:37:35.434Z,6.03
2018-11-03T17:40:05.617Z,6.97
2018-11-03T17:42:35.057Z,7.10
2018-11-03T17:45:05.817Z,5.57
2018-11-03T17:47:42.050Z,8.83
2018-11-03T17:50:22.453Z,9.63
2018-11-03T17:52:52.346Z,6.30
2018-11-03T17:55:21.834Z,6.40
2018-11-03T17:57:51.257Z,7.23
2018-11-03T18:00:20.669Z,7.20
2018-11-03T18:02:49.996Z,6.73
2018-11-03T18:05:19.394Z,7.63
2018-11-03T18:07:48.581Z,6.37
2018-11-03T18:10:19.212Z,7.83
2018-11-03T18:12:49.629Z,6.30
2018-11-03T18:15:18.792Z,7.23
2018-11-03T18:17:48.139Z,7.60
2018-11-03T18:20:17.357Z,9.10
2018-11-03T18:22:46.467Z,5.37
2018-11-03T18:25:15.851Z,9.20
2018-11-03T18:27:48.443Z,4.97
2018-11-03T18:30:21.533Z,5.03
2018-11-03T18:32:51.695Z,5.90
2018-11-03T18:35:21.062Z,7.30
2018-11-03T18:37:50.417Z,5.63
2018-11-03T18:40:19.747Z,6.67
2018-11-03T18:42:49.876Z,5.83
2018-11-03T18:45:19.519Z,6.83
2018-11-03T18:47:49.567Z,7.50
2018-11-03T18:50:19.012Z,8.40
2018-11-03T18:52:48.435Z,9.87
2018-11-03T18:55:17.752Z,8.33
2018-11-03T18:57:47.028Z,9.13
2018-11-03T19:00:16.354Z,8.23
2018-11-03T19:02:45.862Z,13.13
2018-11-03T19:05:17.293Z,8.87
2018-11-03T19:07:46.601Z,8.53
2018-11-03T19:10:16.202Z,7.27
2018-11-03T19:12:49.425Z,8.90
2018-11-03T19:15:18.539Z,9.67
2018-11-03T19:17:48.010Z,8.47
2018-11-03T19:20:18.709Z,9.07
2018-11-03T19:22:59.907Z,9.20
2018-11-03T19:25:30.248Z,9.17
2018-11-03T19:27:59.359Z,9.60
2018-11-03T19:30:28.627Z,9.60
2018-11-03T19:35:39.103Z,9.07
2018-11-03T19:38:08.582Z,9.27
2018-11-03T19:40:38.067Z,10.13
2018-11-03T19:43:08.143Z,8.30
2018-11-03T19:45:39.331Z,8.90
2018-11-03T19:48:09.544Z,9.80
2018-11-03T19:50:39.663Z,9.50
2018-11-03T19:53:08.964Z,11.00
2018-11-03T19:55:38.356Z,11.33
2018-11-03T19:58:10.136Z,11.43
2018-11-03T20:00:43.468Z,9.30
2018-11-03T20:03:16.235Z,9.33
2018-11-03T20:05:45.480Z,10.33
2018-11-03T20:08:14.729Z,11.33
2018-11-03T20:10:44.211Z,10.50
2018-11-03T20:13:13.476Z,11.73
2018-11-03T20:15:43.045Z,13.73
2018-11-03T20:18:12.411Z,8.87
2018-11-03T20:22:04.478Z,10.37
2018-11-03T20:24:36.537Z,9.57
2018-11-03T20:27:09.693Z,9.83
2018-11-03T20:29:53.251Z,8.63
2018-11-03T20:32:23.378Z,9.67
2018-11-03T20:34:53.185Z,9.10
2018-11-03T20:37:24.361Z,9.20
2018-11-03T20:39:55.744Z,10.00
2018-11-03T20:42:25.630Z,9.50
2018-11-03T20:44:55.271Z,9.47
2018-11-03T20:47:24.402Z,9.30
2018-11-03T20:49:53.970Z,8.43
2018-11-03T20:52:23.504Z,10.03
2018-11-03T20:54:53.831Z,12.90
2018-11-03T20:57:23.081Z,10.57
2018-11-03T20:59:52.703Z,9.20
2018-11-03T21:02:22.077Z,9.60
2018-11-03T21:04:51.593Z,10.80
2018-11-03T21:07:22.140Z,8.90
2018-11-03T21:09:52.366Z,10.00
2018-11-03T21:12:22.050Z,9.37
2018-11-03T21:14:51.761Z,10.47
2018-11-03T21:17:21.198Z,12.13
2018-11-03T21:19:50.839Z,9.43
2018-11-03T21:22:20.044Z,12.03
2018-11-03T21:24:50.157Z,10.40
2018-11-03T21:27:19.974Z,9.57
2018-11-03T21:29:49.341Z,12.43
2018-11-03T21:32:18.709Z,12.47
2018-11-03T21:34:55.619Z,10.73
2018-11-03T21:37:27.559Z,13.57
2018-11-03T21:39:56.808Z,10.33
2018-11-03T21:42:28.104Z,13.70
2018-11-03T21:44:57.626Z,10.87
2018-11-03T21:47:26.964Z,12.53
2018-11-03T21:49:56.352Z,11.93
2018-11-03T21:52:26.189Z,12.50
2018-11-03T21:54:57.155Z,11.60
2018-11-03T21:57:26.590Z,11.80
2018-11-03T21:59:55.937Z,11.93
2018-11-03T22:02:29.845Z,14.50
2018-11-03T22:08:30.836Z,11.80
2018-11-03T22:11:32.601Z,14.33
2018-11-03T22:14:15.162Z,13.93
2018-11-03T22:16:44.854Z,13.10
2018-11-03T22:19:15.193Z,14.77
2018-11-03T22:21:44.648Z,14.90
2018-11-03T22:24:14.702Z,14.27
2018-11-03T22:26:48.039Z,13.77
2018-11-03T22:29:17.378Z,14.23
2018-11-03T22:31:47.507Z,15.10
2018-11-03T22:34:21.398Z,15.43
2018-11-03T22:36:54.385Z,13.57
2018-11-03T22:39:23.504Z,14.57
2018-11-03T22:41:52.953Z,15.80
2018-11-03T22:44:22.204Z,15.20
2018-11-03T22:46:52.529Z,13.50
2018-11-03T22:49:23.308Z,15.60
2018-11-03T22:51:52.876Z,17.17
2018-11-03T22:54:23.063Z,15.27
2018-11-03T22:56:52.341Z,18.50
2018-11-03T22:59:21.497Z,15.63
2018-11-03T23:01:50.955Z,14.70
2018-11-03T23:04:20.827Z,15.50
2018-11-03T23:06:50.111Z,16.50
2018-11-03T23:09:20.334Z,15.27
2018-11-03T23:11:50.132Z,16.77
2018-11-03T23:14:20.684Z,17.97
2018-11-03T23:16:50.054Z,17.73
2018-11-03T23:19:19.382Z,19.83
2018-11-03T23:21:49.580Z,17.60
2018-11-03T23:24:18.910Z,18.23
2018-11-03T23:26:49.390Z,17.17
2018-11-03T23:29:18.787Z,18.20
2018-11-03T23:31:48.699Z,19.20
2018-11-03T23:34:18.077Z,18.50
2018-11-03T23:36:48.405Z,19.10
2018-11-03T23:39:17.880Z,17.73
2018-11-03T23:41:47.171Z,17.20
2018-11-03T23:44:16.645Z,18.47
2018-11-03T23:46:45.854Z,18.50
2018-11-03T23:49:15.219Z,15.60
2018-11-03T23:51:45.210Z,18.70
2018-11-03T23:54:14.428Z,14.33
2018-11-03T23:56:43.737Z,16.47
2018-11-03T23:59:13.095Z,16.03
